Parker Dam, California
Current Conditions -  °F | °C
As of 4:55 PM on Saturday 25 Oct 2014 (Local Time) from KHII Reporting Station
Few Clouds Few Clouds  
Wind Chill: 34°   Ceiling: Unl
Heat Index: 34°   Visibility: 10mi
Dew Point:   Wind: 6mph
Humidity: 19%   Direction: 200°SSW
Pressure: 29.89"   Gusts: NA
Location:  34.29°N, 114.14°W
Report Text: KHII 252355Z AUTO 20005KT 10SM FEW100 34/07 A2989 RMK AO2
Loading
Personal Weather Stations






























Interactive Weather Map
Tropical Storm Tracking
New forecast layout! Learn more

10-Day Weather Forecast

Advertisements
Track Severe Weather on mobile